createdAt,value
2018-04-18T00:01:12.250Z,59.93
2018-04-18T00:03:50.559Z,48.73
2018-04-18T00:06:29.164Z,50.87
2018-04-18T00:09:09.349Z,47.83
2018-04-18T00:11:48.540Z,45.63
2018-04-18T00:14:28.187Z,48.27
2018-04-18T00:17:08.685Z,50.70
2018-04-18T00:19:47.511Z,49.13
2018-04-18T00:22:26.101Z,49.90
2018-04-18T00:25:07.008Z,46.27
2018-04-18T00:27:46.119Z,46.03
2018-04-18T00:30:24.603Z,46.93
2018-04-18T00:33:08.279Z,46.60
2018-04-18T00:35:46.851Z,45.27
2018-04-18T00:38:25.311Z,40.77
2018-04-18T00:41:07.988Z,44.83
2018-04-18T00:43:47.356Z,44.93
2018-04-18T00:46:25.743Z,43.13
2018-04-18T00:49:06.315Z,44.07
2018-04-18T00:51:45.807Z,44.00
2018-04-18T00:54:26.008Z,40.87
2018-04-18T00:57:06.772Z,43.03
2018-04-18T00:59:45.496Z,43.90
2018-04-18T01:02:24.334Z,46.37
2018-04-18T01:05:03.728Z,42.87
2018-04-18T01:07:42.473Z,46.90
2018-04-18T01:10:20.730Z,39.50
2018-04-18T01:13:00.044Z,40.97
2018-04-18T01:15:38.619Z,41.73
2018-04-18T01:18:17.468Z,46.37
2018-04-18T01:20:56.014Z,51.73
2018-04-18T01:23:34.955Z,41.93
2018-04-18T01:26:13.983Z,46.87
2018-04-18T01:29:00.857Z,36.53
2018-04-18T01:31:41.186Z,43.53
2018-04-18T01:34:20.204Z,39.93
2018-04-18T01:36:59.689Z,41.43
2018-04-18T01:39:38.514Z,35.80
2018-04-18T01:42:17.293Z,41.80
2018-04-18T01:44:57.214Z,42.20
2018-04-18T01:47:35.908Z,39.20
2018-04-18T01:50:14.659Z,41.47
2018-04-18T01:52:56.801Z,45.23
2018-04-18T01:55:35.107Z,45.07
2018-04-18T01:58:14.033Z,43.07
2018-04-18T02:00:54.559Z,44.50
2018-04-18T02:03:33.382Z,38.27
2018-04-18T02:06:12.516Z,46.93
2018-04-18T02:08:51.486Z,43.80
2018-04-18T02:11:30.537Z,47.40
2018-04-18T02:14:16.474Z,41.57
2018-04-18T02:16:54.992Z,46.60
2018-04-18T02:19:33.925Z,47.47
2018-04-18T02:22:13.143Z,46.93
2018-04-18T02:24:51.783Z,39.60
2018-04-18T02:27:30.349Z,44.20
2018-04-18T02:30:09.152Z,46.13
2018-04-18T02:32:48.092Z,41.60
2018-04-18T02:35:27.533Z,41.77
2018-04-18T02:38:10.657Z,41.43
2018-04-18T02:40:49.992Z,40.80
2018-04-18T02:43:29.223Z,43.17
2018-04-18T02:46:07.753Z,37.90
2018-04-18T02:48:47.303Z,40.27
2018-04-18T02:51:27.725Z,39.43
2018-04-18T02:54:07.144Z,33.30
2018-04-18T02:56:45.586Z,41.00
2018-04-18T02:59:26.437Z,44.83
2018-04-18T03:02:06.302Z,36.07
2018-04-18T03:04:44.749Z,38.20
2018-04-18T03:07:27.110Z,41.03
2018-04-18T03:10:07.185Z,35.20
2018-04-18T03:12:45.652Z,38.57
2018-04-18T03:15:28.683Z,35.80
2018-04-18T03:18:07.215Z,34.07
2018-04-18T03:20:46.779Z,37.20
2018-04-18T03:23:28.279Z,33.53
2018-04-18T03:26:08.443Z,40.50
2018-04-18T03:28:46.946Z,38.27
2018-04-18T03:31:27.150Z,37.97
2018-04-18T03:34:05.907Z,33.57
2018-04-18T03:36:44.507Z,37.20
2018-04-18T03:39:24.426Z,36.67
2018-04-18T03:42:03.699Z,33.70
2018-04-18T03:44:42.459Z,36.03
2018-04-18T03:47:24.486Z,33.77
2018-04-18T03:50:04.679Z,37.40
2018-04-18T03:52:43.294Z,39.17
2018-04-18T03:55:22.114Z,34.37
2018-04-18T03:58:00.789Z,37.90
2018-04-18T04:00:39.977Z,32.43
2018-04-18T04:03:23.715Z,38.57
2018-04-18T04:06:03.071Z,31.90
2018-04-18T04:08:43.954Z,33.23
2018-04-18T04:11:22.686Z,39.00
2018-04-18T04:14:01.195Z,33.37
2018-04-18T04:17:54.463Z,36.17
2018-04-18T04:23:46.296Z,30.57
2018-04-18T04:26:25.726Z,31.70
2018-04-18T04:29:04.378Z,46.30
2018-04-18T04:31:44.112Z,34.23
2018-04-18T04:34:22.632Z,35.13
2018-04-18T04:37:01.025Z,37.03
2018-04-18T04:39:42.945Z,31.33
2018-04-18T04:42:21.190Z,31.43
2018-04-18T04:45:00.796Z,34.73
2018-04-18T04:47:41.212Z,33.90
2018-04-18T04:50:19.794Z,28.50
2018-04-18T04:52:58.480Z,31.40
2018-04-18T04:55:41.914Z,30.73
2018-04-18T04:58:20.312Z,33.73
2018-04-18T05:00:59.247Z,35.73
2018-04-18T05:03:41.278Z,35.73
2018-04-18T05:06:19.592Z,31.03
2018-04-18T05:10:01.402Z,32.53
2018-04-18T05:12:41.154Z,37.13
2018-04-18T05:15:20.385Z,31.20
2018-04-18T05:18:01.424Z,31.23
2018-04-18T05:20:39.901Z,33.70
2018-04-18T05:23:20.594Z,35.80
2018-04-18T05:26:01.709Z,33.97
2018-04-18T05:28:42.049Z,32.63
2018-04-18T05:31:22.495Z,34.63
2018-04-18T05:34:01.633Z,33.10
2018-04-18T05:36:43.229Z,31.57
2018-04-18T05:39:21.196Z,33.17
2018-04-18T05:42:00.801Z,34.40
2018-04-18T05:44:40.248Z,40.43
2018-04-18T05:47:18.996Z,37.83
2018-04-18T05:49:58.325Z,37.67
2018-04-18T06:05:36.512Z,34.33
2018-04-18T06:08:21.084Z,35.43
2018-04-18T06:10:59.314Z,38.20
2018-04-18T06:13:40.856Z,41.93
2018-04-18T06:16:25.225Z,41.70
2018-04-18T06:19:06.862Z,44.77
2018-04-18T06:21:51.165Z,46.10
2018-04-18T06:24:29.793Z,42.67
2018-04-18T06:27:14.973Z,43.60
2018-04-18T06:29:53.458Z,41.13
2018-04-18T06:32:31.823Z,38.67
2018-04-18T06:35:12.747Z,33.80
2018-04-18T06:37:52.232Z,34.70
2018-04-18T06:40:32.390Z,32.43
2018-04-18T06:43:11.657Z,40.23
2018-04-18T06:45:50.182Z,39.90
2018-04-18T06:48:31.390Z,36.83
2018-04-18T06:51:14.756Z,30.83
2018-04-18T06:53:53.659Z,37.73
2018-04-18T06:56:34.817Z,37.73
2018-04-18T06:59:14.141Z,33.63
2018-04-18T07:01:52.300Z,38.47
2018-04-18T07:04:33.290Z,36.30
2018-04-18T07:07:12.368Z,39.27
2018-04-18T07:09:55.794Z,36.40
2018-04-18T07:12:33.759Z,32.70
2018-04-18T07:15:13.097Z,34.30
2018-04-18T07:17:55.340Z,38.87
2018-04-18T07:20:34.259Z,32.27
2018-04-18T07:23:14.564Z,34.97
2018-04-18T07:25:57.290Z,35.20
2018-04-18T07:28:35.687Z,31.90
2018-04-18T07:31:21.979Z,30.00
2018-04-18T07:34:00.156Z,28.90
2018-04-18T07:36:39.366Z,27.23
2018-04-18T07:39:19.475Z,30.93
2018-04-18T07:41:57.432Z,31.70
2018-04-18T07:44:37.949Z,33.00
2018-04-18T07:47:17.403Z,29.63
2018-04-18T07:49:57.834Z,28.40
2018-04-18T07:52:37.801Z,29.93
2018-04-18T07:55:20.530Z,29.67
2018-04-18T07:58:00.034Z,27.87
2018-04-18T08:00:45.631Z,27.23
2018-04-18T08:03:25.326Z,27.50
2018-04-18T08:06:03.697Z,28.40
2018-04-18T08:08:44.260Z,29.10
2018-04-18T08:11:23.266Z,25.23
2018-04-18T08:14:01.494Z,30.07
2018-04-18T08:16:43.326Z,28.73
2018-04-18T08:19:21.513Z,25.70
2018-04-18T08:22:02.090Z,31.90
2018-04-18T08:24:42.684Z,30.13
2018-04-18T08:27:21.916Z,25.67
2018-04-18T08:30:06.323Z,31.40
2018-04-18T08:32:44.780Z,29.63
2018-04-18T08:35:24.344Z,25.27
2018-04-18T08:38:06.191Z,28.87
2018-04-18T08:40:44.337Z,30.30
2018-04-18T08:43:28.853Z,21.83
2018-04-18T08:46:07.891Z,24.30
2018-04-18T08:48:46.256Z,21.47
2018-04-18T08:51:27.533Z,20.53
2018-04-18T08:54:05.824Z,22.33
2018-04-18T08:56:45.823Z,18.20
2018-04-18T08:59:28.217Z,20.70
2018-04-18T09:02:07.240Z,21.90
2018-04-18T09:04:47.682Z,19.33
2018-04-18T09:07:27.387Z,18.70
2018-04-18T09:10:07.177Z,16.53
2018-04-18T09:12:50.579Z,18.93
2018-04-18T09:15:31.171Z,23.83
2018-04-18T09:18:10.128Z,18.93
2018-04-18T09:20:53.049Z,19.97
2018-04-18T09:23:32.449Z,15.23
2018-04-18T09:26:11.513Z,14.10
2018-04-18T09:28:54.169Z,12.23
2018-04-18T09:31:32.508Z,11.27
2018-04-18T09:34:10.925Z,12.77
2018-04-18T09:36:54.690Z,16.47
2018-04-18T09:39:33.760Z,13.23
2018-04-18T09:42:27.069Z,10.20
2018-04-18T09:45:08.260Z,11.70
2018-04-18T09:47:54.342Z,10.23
2018-04-18T09:50:33.600Z,13.90
2018-04-18T09:53:20.770Z,14.47
2018-04-18T09:56:01.941Z,10.57
2018-04-18T09:58:40.320Z,9.97
2018-04-18T10:01:30.699Z,40.90
2018-04-18T10:04:12.774Z,28.70
2018-04-18T10:06:59.333Z,9.27
2018-04-18T10:09:39.043Z,7.23
2018-04-18T10:12:17.615Z,10.27
2018-04-18T10:14:59.771Z,10.17
2018-04-18T10:17:39.173Z,10.93
2018-04-18T10:20:17.580Z,8.90
2018-04-18T10:22:56.233Z,10.47
2018-04-18T10:25:36.855Z,7.50
2018-04-18T10:28:17.032Z,9.13
2018-04-18T10:31:00.782Z,10.63
2018-04-18T10:33:40.826Z,9.87
2018-04-18T10:36:23.696Z,9.20
2018-04-18T10:39:04.009Z,10.33
2018-04-18T10:41:43.611Z,8.53
2018-04-18T10:44:24.833Z,10.53
2018-04-18T10:47:11.015Z,6.80
2018-04-18T10:49:57.455Z,7.33
2018-04-18T10:52:40.219Z,11.03
2018-04-18T10:55:24.433Z,9.63
2018-04-18T10:58:03.384Z,10.97
2018-04-18T11:00:41.533Z,10.63
2018-04-18T11:03:24.625Z,15.63
2018-04-18T11:06:02.851Z,10.80
2018-04-18T11:08:41.670Z,11.57
2018-04-18T11:13:58.918Z,12.53
2018-04-18T11:16:41.822Z,18.23
2018-04-18T11:22:08.042Z,8.17
2018-04-18T11:24:46.615Z,8.90
2018-04-18T11:27:29.250Z,7.90
2018-04-18T11:30:08.029Z,8.87
2018-04-18T11:32:46.267Z,11.73
2018-04-18T11:35:28.668Z,11.40
2018-04-18T11:38:07.992Z,9.77
2018-04-18T11:40:47.657Z,10.83
2018-04-18T11:43:32.947Z,11.50
2018-04-18T11:46:12.395Z,10.10
2018-04-18T11:48:50.677Z,11.20
2018-04-18T11:51:34.497Z,11.10
2018-04-18T11:54:27.027Z,8.67
2018-04-18T12:00:03.532Z,8.33
2018-04-18T12:02:55.195Z,8.00
2018-04-18T12:05:33.426Z,10.60
2018-04-18T12:08:13.762Z,12.90
2018-04-18T12:11:09.872Z,10.00
2018-04-18T12:13:49.137Z,10.93
2018-04-18T12:16:34.453Z,10.17
2018-04-18T12:22:16.357Z,10.73
2018-04-18T12:24:54.919Z,11.23
2018-04-18T12:27:33.577Z,9.37
2018-04-18T12:30:18.865Z,10.17
2018-04-18T12:32:59.481Z,9.13
2018-04-18T12:35:37.988Z,10.23
2018-04-18T12:38:19.665Z,11.40
2018-04-18T12:40:58.591Z,12.70
2018-04-18T12:43:37.889Z,11.27
2018-04-18T12:46:21.767Z,12.03
2018-04-18T12:49:01.257Z,10.13
2018-04-18T12:51:42.176Z,12.03
2018-04-18T12:54:36.170Z,11.50
2018-04-18T12:57:15.653Z,12.97
2018-04-18T12:59:57.554Z,13.87
2018-04-18T13:02:36.212Z,15.80
2018-04-18T13:08:03.013Z,15.80
2018-04-18T13:10:42.094Z,16.07
2018-04-18T13:16:19.999Z,14.63
2018-04-18T13:19:00.813Z,16.73
2018-04-18T13:21:49.860Z,15.43
2018-04-18T13:24:38.608Z,15.53
2018-04-18T13:27:18.991Z,17.80
2018-04-18T13:29:58.995Z,15.43
2018-04-18T13:32:39.894Z,13.83
2018-04-18T13:35:20.137Z,16.67
2018-04-18T13:38:04.500Z,13.20
2018-04-18T13:43:44.873Z,13.73
2018-04-18T13:46:24.679Z,14.07
2018-04-18T13:49:06.778Z,16.87
2018-04-18T13:51:45.315Z,11.77
2018-04-18T13:54:30.867Z,18.47
2018-04-18T13:57:20.385Z,11.70
2018-04-18T14:00:09.508Z,13.17
2018-04-18T14:06:00.496Z,13.30
2018-04-18T14:08:44.777Z,15.77
2018-04-18T14:11:24.843Z,13.83
2018-04-18T14:14:11.914Z,14.60
2018-04-18T14:16:50.445Z,12.77
2018-04-18T14:19:32.235Z,11.00
2018-04-18T14:22:10.630Z,14.17
2018-04-18T14:24:51.125Z,13.27
2018-04-18T14:30:38.063Z,13.67
2018-04-18T14:33:23.454Z,12.07
2018-04-18T14:36:15.749Z,15.23
2018-04-18T14:39:08.163Z,17.87
2018-04-18T14:41:48.204Z,11.43
2018-04-18T14:44:32.605Z,13.37
2018-04-18T14:47:14.415Z,12.00
2018-04-18T14:49:52.757Z,15.23
2018-04-18T14:52:34.304Z,13.07
2018-04-18T14:55:15.028Z,14.67
2018-04-18T14:57:53.426Z,14.17
2018-04-18T15:00:43.989Z,12.03
2018-04-18T15:03:29.662Z,15.77
2018-04-18T15:06:17.081Z,12.50
2018-04-18T15:08:56.643Z,12.20
2018-04-18T15:11:35.400Z,13.07
2018-04-18T15:14:16.470Z,12.30
2018-04-18T15:16:56.683Z,15.13
2018-04-18T15:19:36.172Z,13.03
2018-04-18T15:22:16.827Z,13.17
2018-04-18T15:24:56.197Z,13.53
2018-04-18T15:27:34.939Z,15.63
2018-04-18T15:30:17.713Z,15.83
2018-04-18T15:32:56.132Z,11.73
2018-04-18T15:35:34.572Z,12.63
2018-04-18T15:38:15.254Z,14.33
2018-04-18T15:40:56.739Z,11.87
2018-04-18T15:43:37.397Z,10.60
2018-04-18T15:46:19.356Z,10.83
2018-04-18T15:48:58.436Z,11.97
2018-04-18T15:51:39.873Z,13.83
2018-04-18T15:54:18.207Z,13.30
2018-04-18T15:57:02.453Z,10.87
2018-04-18T15:59:40.704Z,10.33
2018-04-18T16:02:19.157Z,10.70
2018-04-18T16:05:01.449Z,12.43
2018-04-18T16:07:39.833Z,12.00
2018-04-18T16:10:20.693Z,14.60
2018-04-18T16:13:18.810Z,11.07
2018-04-18T16:16:01.050Z,14.50
2018-04-18T16:18:42.351Z,10.90
2018-04-18T16:21:24.904Z,12.47
2018-04-18T16:24:03.134Z,13.13
2018-04-18T16:26:41.610Z,13.07
2018-04-18T16:29:36.655Z,16.60
2018-04-18T16:32:17.153Z,15.63
2018-04-18T16:34:57.311Z,15.90
2018-04-18T16:37:38.435Z,13.53
2018-04-18T16:40:17.987Z,10.67
2018-04-18T16:42:57.640Z,13.40
2018-04-18T16:45:39.522Z,13.03
2018-04-18T16:48:19.472Z,13.40
2018-04-18T16:51:00.090Z,13.17
2018-04-18T16:53:41.102Z,13.97
2018-04-18T16:56:20.625Z,15.50
2018-04-18T16:59:03.162Z,14.47
2018-04-18T17:01:45.143Z,12.53
2018-04-18T17:04:23.965Z,16.67
2018-04-18T17:07:05.882Z,14.93
2018-04-18T17:09:43.866Z,12.43
2018-04-18T17:12:23.355Z,16.83
2018-04-18T17:15:05.126Z,17.70
2018-04-18T17:17:45.556Z,14.63
2018-04-18T17:20:25.919Z,15.13
2018-04-18T17:23:06.069Z,14.77
2018-04-18T17:25:46.143Z,14.77
2018-04-18T17:28:29.099Z,16.10
2018-04-18T17:31:07.899Z,17.70
2018-04-18T17:33:48.584Z,15.00
2018-04-18T17:36:28.173Z,15.67
2018-04-18T17:39:08.062Z,17.30
2018-04-18T17:41:48.384Z,15.77
2018-04-18T17:44:27.805Z,17.07
2018-04-18T17:47:09.948Z,15.93
2018-04-18T17:49:50.163Z,16.80
2018-04-18T17:52:30.760Z,17.33
2018-04-18T17:55:10.864Z,17.70
2018-04-18T17:57:52.989Z,14.43
2018-04-18T18:00:34.042Z,15.10
2018-04-18T18:03:12.987Z,14.43
2018-04-18T18:05:53.282Z,16.57
2018-04-18T18:08:49.000Z,15.07
2018-04-18T18:11:35.520Z,16.07
2018-04-18T18:14:19.357Z,17.23
2018-04-18T18:16:58.629Z,14.43
2018-04-18T18:19:37.473Z,15.77
2018-04-18T18:22:19.083Z,14.00
2018-04-18T18:24:57.707Z,13.07
2018-04-18T18:27:37.240Z,9.33
2018-04-18T18:30:19.270Z,10.80
2018-04-18T18:33:04.170Z,16.30
2018-04-18T18:35:42.517Z,13.47
2018-04-18T18:38:22.553Z,15.43
2018-04-18T18:41:02.202Z,15.60
2018-04-18T18:43:42.056Z,12.17
2018-04-18T18:46:23.252Z,15.93
2018-04-18T18:49:02.755Z,12.87
2018-04-18T18:51:44.059Z,12.13
2018-04-18T18:54:24.601Z,18.23
2018-04-18T18:57:09.244Z,16.23
2018-04-18T18:59:54.947Z,15.30
2018-04-18T19:02:42.293Z,21.57
2018-04-18T19:05:23.914Z,19.20
2018-04-18T19:08:06.908Z,14.10
2018-04-18T19:10:48.690Z,18.00
2018-04-18T19:13:29.076Z,13.47
2018-04-18T19:16:19.103Z,15.93
2018-04-18T19:19:02.772Z,13.77
2018-04-18T19:21:43.226Z,17.43
2018-04-18T19:24:23.081Z,15.77
2018-04-18T19:27:05.180Z,20.00
2018-04-18T19:29:45.848Z,14.90
2018-04-18T19:32:27.811Z,18.67
2018-04-18T19:35:08.902Z,18.17
2018-04-18T19:37:49.386Z,15.00
2018-04-18T19:40:29.043Z,14.60
2018-04-18T19:43:11.120Z,14.43
2018-04-18T19:45:50.126Z,16.10
2018-04-18T19:48:30.228Z,15.07
2018-04-18T19:51:11.752Z,13.93
2018-04-18T19:53:50.720Z,14.57
2018-04-18T19:56:31.391Z,19.47
2018-04-18T19:59:13.977Z,14.13
2018-04-18T20:01:54.504Z,15.77
2018-04-18T20:04:33.424Z,17.17
2018-04-18T20:07:12.058Z,19.13
2018-04-18T20:09:56.018Z,13.37
2018-04-18T20:12:37.298Z,17.33
2018-04-18T20:15:24.551Z,13.10
2018-04-18T20:18:06.087Z,14.93
2018-04-18T20:20:46.625Z,18.67
2018-04-18T20:23:30.130Z,14.33
2018-04-18T20:26:09.558Z,14.97
2018-04-18T20:28:52.051Z,17.13
2018-04-18T20:31:30.768Z,15.33
2018-04-18T20:34:17.435Z,15.63
2018-04-18T20:36:55.997Z,15.77
2018-04-18T20:39:38.693Z,15.00
2018-04-18T20:42:18.015Z,12.63
2018-04-18T20:44:56.526Z,18.97
2018-04-18T20:47:39.558Z,18.87
2018-04-18T20:50:17.737Z,18.80
2018-04-18T20:52:56.985Z,16.03
2018-04-18T20:55:36.855Z,15.57
2018-04-18T20:58:16.204Z,15.47
2018-04-18T21:00:56.057Z,16.53
2018-04-18T21:03:36.963Z,15.90
2018-04-18T21:06:15.905Z,20.43
2018-04-18T21:08:55.575Z,15.73
2018-04-18T21:11:38.850Z,22.37
2018-04-18T21:14:17.521Z,17.83
2018-04-18T21:16:56.088Z,18.00
2018-04-18T21:19:37.865Z,13.73
2018-04-18T21:22:16.373Z,15.47
2018-04-18T21:24:58.654Z,13.47
2018-04-18T21:27:37.383Z,16.73
2018-04-18T21:30:17.556Z,16.13
2018-04-18T21:32:57.497Z,18.60
2018-04-18T21:35:35.880Z,16.83
2018-04-18T21:38:19.668Z,13.43
2018-04-18T21:41:03.414Z,17.17
2018-04-18T21:43:41.959Z,15.17
2018-04-18T21:46:22.516Z,17.60
2018-04-18T21:49:01.654Z,14.87
2018-04-18T21:51:40.171Z,16.67
2018-04-18T21:54:19.135Z,14.07
2018-04-18T21:57:02.005Z,16.60
2018-04-18T21:59:41.223Z,15.73
2018-04-18T22:06:05.563Z,18.40
2018-04-18T22:09:11.497Z,13.70
2018-04-18T22:11:50.088Z,18.40
2018-04-18T22:14:45.907Z,16.97
2018-04-18T22:17:30.595Z,15.60
2018-04-18T22:20:09.614Z,15.47
2018-04-18T22:22:48.671Z,17.37
2018-04-18T22:25:27.062Z,15.83
2018-04-18T22:28:06.182Z,17.77
2018-04-18T22:30:47.001Z,14.87
2018-04-18T22:33:26.985Z,16.80
2018-04-18T22:36:06.277Z,20.77
2018-04-18T22:38:48.306Z,15.17
2018-04-18T22:41:27.725Z,16.33
2018-04-18T22:44:07.175Z,16.83
2018-04-18T22:46:45.903Z,17.17
2018-04-18T22:49:24.520Z,16.50
2018-04-18T22:52:04.092Z,17.97
2018-04-18T22:54:45.483Z,15.10
2018-04-18T22:57:24.222Z,15.87
2018-04-18T23:00:03.213Z,16.87
2018-04-18T23:02:42.164Z,15.63
2018-04-18T23:05:20.760Z,15.93
2018-04-18T23:08:00.474Z,18.50
2018-04-18T23:10:39.335Z,21.43
2018-04-18T23:13:22.390Z,15.03
2018-04-18T23:16:07.957Z,17.40
2018-04-18T23:18:46.534Z,22.07
2018-04-18T23:21:25.647Z,14.50
2018-04-18T23:24:04.779Z,14.30
2018-04-18T23:26:44.276Z,14.83
2018-04-18T23:29:23.050Z,15.80
2018-04-18T23:32:01.812Z,15.67
2018-04-18T23:34:40.335Z,16.60
2018-04-18T23:37:18.983Z,19.00
2018-04-18T23:39:57.402Z,16.17
2018-04-18T23:42:36.264Z,17.30
2018-04-18T23:45:15.736Z,16.50
2018-04-18T23:47:56.152Z,14.60
2018-04-18T23:50:34.662Z,17.43
2018-04-18T23:53:13.854Z,18.10
2018-04-18T23:55:56.109Z,17.73
2018-04-18T23:58:36.174Z,16.87
